sensor_id;sensor_type;location;lat;lon;timestamp;P1;durP1;ratioP1;P2;durP2;ratioP2
12654;SDS011;6392;44.644;11.448;2022-09-27T00:01:46;2.10;;;1.00;;
12654;SDS011;6392;44.644;11.448;2022-09-27T00:04:13;0.80;;;0.80;;
12654;SDS011;6392;44.644;11.448;2022-09-27T00:06:40;2.17;;;1.10;;
12654;SDS011;6392;44.644;11.448;2022-09-27T00:09:07;1.43;;;1.23;;
12654;SDS011;6392;44.644;11.448;2022-09-27T00:11:36;1.40;;;0.93;;
12654;SDS011;6392;44.644;11.448;2022-09-27T00:14:04;1.97;;;1.33;;
12654;SDS011;6392;44.644;11.448;2022-09-27T00:16:34;1.23;;;1.10;;
12654;SDS011;6392;44.644;11.448;2022-09-27T00:19:04;1.23;;;1.13;;
12654;SDS011;6392;44.644;11.448;2022-09-27T00:21:32;1.53;;;1.00;;
12654;SDS011;6392;44.644;11.448;2022-09-27T00:24:00;0.97;;;0.80;;
12654;SDS011;6392;44.644;11.448;2022-09-27T00:26:27;2.13;;;1.27;;
12654;SDS011;6392;44.644;11.448;2022-09-27T00:28:54;1.20;;;1.10;;
12654;SDS011;6392;44.644;11.448;2022-09-27T00:31:22;1.70;;;1.00;;
12654;SDS011;6392;44.644;11.448;2022-09-27T00:33:55;1.67;;;1.17;;
12654;SDS011;6392;44.644;11.448;2022-09-27T00:36:23;2.87;;;1.00;;
12654;SDS011;6392;44.644;11.448;2022-09-27T00:38:51;1.23;;;1.10;;
12654;SDS011;6392;44.644;11.448;2022-09-27T00:41:19;1.00;;;0.90;;
12654;SDS011;6392;44.644;11.448;2022-09-27T00:43:48;1.13;;;1.00;;
12654;SDS011;6392;44.644;11.448;2022-09-27T00:46:21;1.03;;;0.93;;
12654;SDS011;6392;44.644;11.448;2022-09-27T00:48:56;3.40;;;1.30;;
12654;SDS011;6392;44.644;11.448;2022-09-27T00:51:29;1.10;;;1.00;;
12654;SDS011;6392;44.644;11.448;2022-09-27T00:54:02;1.20;;;1.10;;
12654;SDS011;6392;44.644;11.448;2022-09-27T00:56:33;3.60;;;1.13;;
12654;SDS011;6392;44.644;11.448;2022-09-27T00:59:02;1.83;;;0.90;;
12654;SDS011;6392;44.644;11.448;2022-09-27T01:01:33;4.53;;;1.20;;
12654;SDS011;6392;44.644;11.448;2022-09-27T01:04:02;3.33;;;1.17;;
12654;SDS011;6392;44.644;11.448;2022-09-27T01:06:33;2.60;;;1.10;;
12654;SDS011;6392;44.644;11.448;2022-09-27T01:09:01;1.00;;;1.00;;
12654;SDS011;6392;44.644;11.448;2022-09-27T01:11:35;2.00;;;1.73;;
12654;SDS011;6392;44.644;11.448;2022-09-27T01:14:09;3.23;;;1.23;;
12654;SDS011;6392;44.644;11.448;2022-09-27T01:16:51;1.57;;;0.90;;
12654;SDS011;6392;44.644;11.448;2022-09-27T01:19:39;1.30;;;1.10;;
12654;SDS011;6392;44.644;11.448;2022-09-27T01:22:28;2.93;;;1.10;;
12654;SDS011;6392;44.644;11.448;2022-09-27T01:25:02;3.20;;;1.10;;
12654;SDS011;6392;44.644;11.448;2022-09-27T01:28:08;2.00;;;1.20;;
12654;SDS011;6392;44.644;11.448;2022-09-27T01:30:46;1.20;;;0.90;;
12654;SDS011;6392;44.644;11.448;2022-09-27T01:33:23;2.80;;;1.40;;
12654;SDS011;6392;44.644;11.448;2022-09-27T01:36:05;2.70;;;1.23;;
12654;SDS011;6392;44.644;11.448;2022-09-27T01:38:44;2.37;;;1.37;;
12654;SDS011;6392;44.644;11.448;2022-09-27T01:41:22;3.43;;;1.50;;
12654;SDS011;6392;44.644;11.448;2022-09-27T01:43:56;3.20;;;1.37;;
12654;SDS011;6392;44.644;11.448;2022-09-27T01:46:30;2.37;;;1.27;;
12654;SDS011;6392;44.644;11.448;2022-09-27T01:49:03;3.20;;;1.40;;
12654;SDS011;6392;44.644;11.448;2022-09-27T01:51:37;1.57;;;1.47;;
12654;SDS011;6392;44.644;11.448;2022-09-27T01:54:11;1.53;;;1.30;;
12654;SDS011;6392;44.644;11.448;2022-09-27T01:56:41;2.23;;;1.40;;
12654;SDS011;6392;44.644;11.448;2022-09-27T01:59:13;2.57;;;1.50;;
12654;SDS011;6392;44.644;11.448;2022-09-27T02:01:45;4.17;;;1.20;;
12654;SDS011;6392;44.644;11.448;2022-09-27T02:04:16;1.30;;;1.10;;
12654;SDS011;6392;44.644;11.448;2022-09-27T02:06:50;2.10;;;1.60;;
12654;SDS011;6392;44.644;11.448;2022-09-27T02:09:24;2.47;;;1.20;;
12654;SDS011;6392;44.644;11.448;2022-09-27T02:11:56;2.00;;;1.60;;
12654;SDS011;6392;44.644;11.448;2022-09-27T02:14:29;3.93;;;1.50;;
12654;SDS011;6392;44.644;11.448;2022-09-27T02:17:06;1.33;;;1.23;;
12654;SDS011;6392;44.644;11.448;2022-09-27T02:19:37;2.13;;;1.40;;
12654;SDS011;6392;44.644;11.448;2022-09-27T02:22:14;8.13;;;2.40;;
12654;SDS011;6392;44.644;11.448;2022-09-27T02:24:49;2.40;;;1.33;;
12654;SDS011;6392;44.644;11.448;2022-09-27T02:27:20;1.87;;;1.17;;
12654;SDS011;6392;44.644;11.448;2022-09-27T02:29:51;2.70;;;1.47;;
12654;SDS011;6392;44.644;11.448;2022-09-27T02:32:25;2.13;;;1.40;;
12654;SDS011;6392;44.644;11.448;2022-09-27T02:34:53;1.83;;;1.60;;
12654;SDS011;6392;44.644;11.448;2022-09-27T02:37:23;3.40;;;1.67;;
12654;SDS011;6392;44.644;11.448;2022-09-27T02:39:50;2.80;;;1.50;;
12654;SDS011;6392;44.644;11.448;2022-09-27T02:42:17;2.40;;;1.60;;
12654;SDS011;6392;44.644;11.448;2022-09-27T02:44:44;4.37;;;1.80;;
12654;SDS011;6392;44.644;11.448;2022-09-27T02:47:21;2.20;;;1.37;;
12654;SDS011;6392;44.644;11.448;2022-09-27T02:50:08;1.70;;;1.43;;
12654;SDS011;6392;44.644;11.448;2022-09-27T02:52:54;2.20;;;1.37;;
12654;SDS011;6392;44.644;11.448;2022-09-27T02:55:35;3.67;;;1.53;;
12654;SDS011;6392;44.644;11.448;2022-09-27T02:58:12;1.90;;;1.60;;
12654;SDS011;6392;44.644;11.448;2022-09-27T03:00:51;3.20;;;2.37;;
12654;SDS011;6392;44.644;11.448;2022-09-27T03:03:30;2.87;;;1.50;;
12654;SDS011;6392;44.644;11.448;2022-09-27T03:06:02;2.33;;;1.33;;
12654;SDS011;6392;44.644;11.448;2022-09-27T03:08:33;2.53;;;1.50;;
12654;SDS011;6392;44.644;11.448;2022-09-27T03:11:01;2.87;;;1.50;;
12654;SDS011;6392;44.644;11.448;2022-09-27T03:13:28;1.33;;;1.07;;
12654;SDS011;6392;44.644;11.448;2022-09-27T03:15:56;2.50;;;1.60;;
12654;SDS011;6392;44.644;11.448;2022-09-27T03:18:23;1.50;;;1.23;;
12654;SDS011;6392;44.644;11.448;2022-09-27T03:20:52;4.43;;;1.40;;
12654;SDS011;6392;44.644;11.448;2022-09-27T03:23:19;2.33;;;1.43;;
12654;SDS011;6392;44.644;11.448;2022-09-27T03:25:46;2.13;;;1.40;;
12654;SDS011;6392;44.644;11.448;2022-09-27T03:28:13;2.37;;;1.40;;
12654;SDS011;6392;44.644;11.448;2022-09-27T03:30:41;2.33;;;1.30;;
12654;SDS011;6392;44.644;11.448;2022-09-27T03:33:10;3.10;;;1.60;;
12654;SDS011;6392;44.644;11.448;2022-09-27T03:35:37;1.97;;;1.40;;
12654;SDS011;6392;44.644;11.448;2022-09-27T03:38:07;1.40;;;1.30;;
12654;SDS011;6392;44.644;11.448;2022-09-27T03:40:34;2.50;;;1.50;;
12654;SDS011;6392;44.644;11.448;2022-09-27T03:43:02;2.10;;;1.57;;
12654;SDS011;6392;44.644;11.448;2022-09-27T03:45:29;2.87;;;1.60;;
12654;SDS011;6392;44.644;11.448;2022-09-27T03:47:56;1.70;;;1.57;;
12654;SDS011;6392;44.644;11.448;2022-09-27T03:50:23;4.07;;;1.50;;
12654;SDS011;6392;44.644;11.448;2022-09-27T03:52:50;3.37;;;2.00;;
12654;SDS011;6392;44.644;11.448;2022-09-27T03:55:20;2.43;;;1.73;;
12654;SDS011;6392;44.644;11.448;2022-09-27T03:57:47;1.87;;;1.37;;
12654;SDS011;6392;44.644;11.448;2022-09-27T04:00:14;2.27;;;1.43;;
12654;SDS011;6392;44.644;11.448;2022-09-27T04:02:42;3.60;;;1.70;;
12654;SDS011;6392;44.644;11.448;2022-09-27T04:05:09;2.13;;;1.33;;
12654;SDS011;6392;44.644;11.448;2022-09-27T04:07:36;1.90;;;1.57;;
12654;SDS011;6392;44.644;11.448;2022-09-27T04:10:04;1.77;;;1.63;;
12654;SDS011;6392;44.644;11.448;2022-09-27T04:12:32;2.80;;;1.63;;
12654;SDS011;6392;44.644;11.448;2022-09-27T04:14:59;2.43;;;1.50;;
12654;SDS011;6392;44.644;11.448;2022-09-27T04:17:26;3.47;;;1.27;;
12654;SDS011;6392;44.644;11.448;2022-09-27T04:19:53;2.10;;;1.53;;
12654;SDS011;6392;44.644;11.448;2022-09-27T04:22:20;2.40;;;1.43;;
12654;SDS011;6392;44.644;11.448;2022-09-27T04:24:48;2.33;;;1.50;;
12654;SDS011;6392;44.644;11.448;2022-09-27T04:27:15;1.90;;;1.40;;
12654;SDS011;6392;44.644;11.448;2022-09-27T04:29:44;1.87;;;1.30;;
12654;SDS011;6392;44.644;11.448;2022-09-27T04:32:11;2.77;;;1.43;;
12654;SDS011;6392;44.644;11.448;2022-09-27T04:34:39;3.47;;;1.30;;
12654;SDS011;6392;44.644;11.448;2022-09-27T04:37:23;2.00;;;1.80;;
12654;SDS011;6392;44.644;11.448;2022-09-27T04:39:51;1.63;;;1.50;;
12654;SDS011;6392;44.644;11.448;2022-09-27T04:42:18;4.27;;;1.80;;
12654;SDS011;6392;44.644;11.448;2022-09-27T04:44:46;2.30;;;1.80;;
12654;SDS011;6392;44.644;11.448;2022-09-27T04:47:13;1.60;;;1.47;;
12654;SDS011;6392;44.644;11.448;2022-09-27T04:49:41;3.27;;;1.93;;
12654;SDS011;6392;44.644;11.448;2022-09-27T04:52:08;2.20;;;1.67;;
12654;SDS011;6392;44.644;11.448;2022-09-27T04:54:35;2.73;;;1.50;;
12654;SDS011;6392;44.644;11.448;2022-09-27T04:57:02;2.30;;;1.77;;
12654;SDS011;6392;44.644;11.448;2022-09-27T04:59:29;2.83;;;1.90;;
12654;SDS011;6392;44.644;11.448;2022-09-27T05:01:57;2.53;;;1.60;;
12654;SDS011;6392;44.644;11.448;2022-09-27T05:04:25;3.27;;;1.97;;
12654;SDS011;6392;44.644;11.448;2022-09-27T05:06:52;5.20;;;1.50;;
12654;SDS011;6392;44.644;11.448;2022-09-27T05:09:19;2.37;;;1.77;;
12654;SDS011;6392;44.644;11.448;2022-09-27T05:11:47;2.40;;;1.60;;
12654;SDS011;6392;44.644;11.448;2022-09-27T05:14:13;2.20;;;1.70;;
12654;SDS011;6392;44.644;11.448;2022-09-27T05:16:41;2.23;;;2.03;;
12654;SDS011;6392;44.644;11.448;2022-09-27T05:19:09;3.00;;;1.70;;
12654;SDS011;6392;44.644;11.448;2022-09-27T05:21:36;2.97;;;1.83;;
12654;SDS011;6392;44.644;11.448;2022-09-27T05:24:03;2.33;;;1.70;;
12654;SDS011;6392;44.644;11.448;2022-09-27T05:26:30;1.83;;;1.60;;
12654;SDS011;6392;44.644;11.448;2022-09-27T05:28:57;4.10;;;2.27;;
12654;SDS011;6392;44.644;11.448;2022-09-27T05:31:24;3.33;;;1.73;;
12654;SDS011;6392;44.644;11.448;2022-09-27T05:33:52;3.00;;;1.80;;
12654;SDS011;6392;44.644;11.448;2022-09-27T05:36:21;4.33;;;2.07;;
12654;SDS011;6392;44.644;11.448;2022-09-27T05:38:48;2.47;;;2.00;;
12654;SDS011;6392;44.644;11.448;2022-09-27T05:41:15;4.83;;;2.83;;
12654;SDS011;6392;44.644;11.448;2022-09-27T05:43:42;2.67;;;2.07;;
12654;SDS011;6392;44.644;11.448;2022-09-27T05:46:10;6.47;;;2.13;;
12654;SDS011;6392;44.644;11.448;2022-09-27T05:48:37;3.70;;;2.33;;
12654;SDS011;6392;44.644;11.448;2022-09-27T05:51:04;2.03;;;1.80;;
12654;SDS011;6392;44.644;11.448;2022-09-27T05:53:33;2.30;;;2.10;;
12654;SDS011;6392;44.644;11.448;2022-09-27T05:56:00;2.00;;;1.77;;
12654;SDS011;6392;44.644;11.448;2022-09-27T05:58:28;2.90;;;2.30;;
12654;SDS011;6392;44.644;11.448;2022-09-27T06:00:55;5.47;;;2.53;;
12654;SDS011;6392;44.644;11.448;2022-09-27T06:03:22;3.97;;;2.20;;
12654;SDS011;6392;44.644;11.448;2022-09-27T06:05:49;3.43;;;2.47;;
12654;SDS011;6392;44.644;11.448;2022-09-27T06:08:16;3.60;;;2.40;;
12654;SDS011;6392;44.644;11.448;2022-09-27T06:10:46;4.97;;;2.20;;
12654;SDS011;6392;44.644;11.448;2022-09-27T06:13:13;5.10;;;2.40;;
12654;SDS011;6392;44.644;11.448;2022-09-27T06:15:42;3.37;;;2.50;;
12654;SDS011;6392;44.644;11.448;2022-09-27T06:18:11;2.30;;;2.10;;
12654;SDS011;6392;44.644;11.448;2022-09-27T06:20:40;4.37;;;2.43;;
12654;SDS011;6392;44.644;11.448;2022-09-27T06:23:08;4.10;;;2.20;;
12654;SDS011;6392;44.644;11.448;2022-09-27T06:25:37;2.17;;;1.97;;
12654;SDS011;6392;44.644;11.448;2022-09-27T06:28:06;2.70;;;2.40;;
12654;SDS011;6392;44.644;11.448;2022-09-27T06:30:36;2.70;;;2.00;;
12654;SDS011;6392;44.644;11.448;2022-09-27T06:33:04;3.20;;;2.00;;
12654;SDS011;6392;44.644;11.448;2022-09-27T06:35:33;3.57;;;2.10;;
12654;SDS011;6392;44.644;11.448;2022-09-27T06:38:02;4.83;;;2.23;;
12654;SDS011;6392;44.644;11.448;2022-09-27T06:40:31;4.33;;;2.37;;
12654;SDS011;6392;44.644;11.448;2022-09-27T06:43:00;3.20;;;2.27;;
12654;SDS011;6392;44.644;11.448;2022-09-27T06:45:29;3.10;;;2.20;;
12654;SDS011;6392;44.644;11.448;2022-09-27T06:47:58;3.13;;;2.30;;
12654;SDS011;6392;44.644;11.448;2022-09-27T06:50:26;3.23;;;2.50;;
12654;SDS011;6392;44.644;11.448;2022-09-27T06:52:54;3.40;;;2.40;;
12654;SDS011;6392;44.644;11.448;2022-09-27T06:55:21;3.33;;;2.43;;
12654;SDS011;6392;44.644;11.448;2022-09-27T06:57:48;5.53;;;2.30;;
12654;SDS011;6392;44.644;11.448;2022-09-27T07:00:37;5.50;;;2.43;;
12654;SDS011;6392;44.644;11.448;2022-09-27T07:03:04;3.53;;;2.27;;
12654;SDS011;6392;44.644;11.448;2022-09-27T07:05:32;5.10;;;2.43;;
12654;SDS011;6392;44.644;11.448;2022-09-27T07:07:59;3.17;;;2.33;;
12654;SDS011;6392;44.644;11.448;2022-09-27T07:10:27;4.90;;;2.43;;
12654;SDS011;6392;44.644;11.448;2022-09-27T07:12:56;2.63;;;2.40;;
12654;SDS011;6392;44.644;11.448;2022-09-27T07:15:29;2.90;;;1.90;;
12654;SDS011;6392;44.644;11.448;2022-09-27T07:17:57;2.90;;;2.07;;
12654;SDS011;6392;44.644;11.448;2022-09-27T07:20:25;6.00;;;3.13;;
12654;SDS011;6392;44.644;11.448;2022-09-27T07:22:53;3.73;;;2.50;;
12654;SDS011;6392;44.644;11.448;2022-09-27T07:25:21;5.73;;;2.60;;
12654;SDS011;6392;44.644;11.448;2022-09-27T07:27:48;5.00;;;2.33;;
12654;SDS011;6392;44.644;11.448;2022-09-27T07:30:17;4.17;;;2.47;;
12654;SDS011;6392;44.644;11.448;2022-09-27T07:32:45;3.53;;;2.63;;
12654;SDS011;6392;44.644;11.448;2022-09-27T07:35:13;3.90;;;2.77;;
12654;SDS011;6392;44.644;11.448;2022-09-27T07:37:41;3.53;;;2.60;;
12654;SDS011;6392;44.644;11.448;2022-09-27T07:40:09;3.73;;;2.97;;
12654;SDS011;6392;44.644;11.448;2022-09-27T07:42:36;5.83;;;2.80;;
12654;SDS011;6392;44.644;11.448;2022-09-27T07:45:04;3.67;;;2.80;;
12654;SDS011;6392;44.644;11.448;2022-09-27T07:47:33;5.83;;;3.20;;
12654;SDS011;6392;44.644;11.448;2022-09-27T07:50:01;7.40;;;3.10;;
12654;SDS011;6392;44.644;11.448;2022-09-27T07:52:37;4.33;;;3.17;;
12654;SDS011;6392;44.644;11.448;2022-09-27T07:55:05;7.80;;;3.40;;
12654;SDS011;6392;44.644;11.448;2022-09-27T07:57:33;4.83;;;3.27;;
12654;SDS011;6392;44.644;11.448;2022-09-27T08:00:01;4.73;;;3.37;;
12654;SDS011;6392;44.644;11.448;2022-09-27T08:02:28;4.90;;;3.30;;
12654;SDS011;6392;44.644;11.448;2022-09-27T08:04:57;5.23;;;3.40;;
12654;SDS011;6392;44.644;11.448;2022-09-27T08:07:24;5.43;;;3.40;;
12654;SDS011;6392;44.644;11.448;2022-09-27T08:09:52;5.17;;;3.50;;
12654;SDS011;6392;44.644;11.448;2022-09-27T08:12:20;8.37;;;3.90;;
12654;SDS011;6392;44.644;11.448;2022-09-27T08:14:47;6.23;;;4.20;;
12654;SDS011;6392;44.644;11.448;2022-09-27T08:17:14;8.57;;;4.13;;
12654;SDS011;6392;44.644;11.448;2022-09-27T08:19:42;8.33;;;4.70;;
12654;SDS011;6392;44.644;11.448;2022-09-27T08:22:10;8.13;;;4.50;;
12654;SDS011;6392;44.644;11.448;2022-09-27T08:24:38;8.30;;;4.70;;
12654;SDS011;6392;44.644;11.448;2022-09-27T08:27:06;10.03;;;5.07;;
12654;SDS011;6392;44.644;11.448;2022-09-27T08:29:34;8.13;;;4.47;;
12654;SDS011;6392;44.644;11.448;2022-09-27T08:32:05;6.90;;;3.43;;
12654;SDS011;6392;44.644;11.448;2022-09-27T08:34:33;4.73;;;2.87;;
12654;SDS011;6392;44.644;11.448;2022-09-27T08:37:00;3.40;;;2.10;;
12654;SDS011;6392;44.644;11.448;2022-09-27T08:39:27;5.97;;;2.63;;
12654;SDS011;6392;44.644;11.448;2022-09-27T08:41:56;4.17;;;2.33;;
12654;SDS011;6392;44.644;11.448;2022-09-27T08:44:32;7.03;;;2.73;;
12654;SDS011;6392;44.644;11.448;2022-09-27T08:47:10;6.83;;;2.73;;
12654;SDS011;6392;44.644;11.448;2022-09-27T08:49:42;7.30;;;2.80;;
12654;SDS011;6392;44.644;11.448;2022-09-27T08:52:15;3.03;;;2.00;;
12654;SDS011;6392;44.644;11.448;2022-09-27T08:54:45;2.43;;;1.57;;
12654;SDS011;6392;44.644;11.448;2022-09-27T08:57:14;3.23;;;1.50;;
12654;SDS011;6392;44.644;11.448;2022-09-27T08:59:44;5.33;;;2.50;;
12654;SDS011;6392;44.644;11.448;2022-09-27T09:02:18;4.10;;;1.73;;
12654;SDS011;6392;44.644;11.448;2022-09-27T09:04:49;4.40;;;2.03;;
12654;SDS011;6392;44.644;11.448;2022-09-27T09:07:27;3.00;;;1.57;;
12654;SDS011;6392;44.644;11.448;2022-09-27T09:10:11;1.93;;;1.20;;
12654;SDS011;6392;44.644;11.448;2022-09-27T09:13:08;2.17;;;1.30;;
12654;SDS011;6392;44.644;11.448;2022-09-27T09:15:42;5.93;;;1.70;;
12654;SDS011;6392;44.644;11.448;2022-09-27T09:18:28;4.87;;;1.87;;
12654;SDS011;6392;44.644;11.448;2022-09-27T09:21:06;3.30;;;1.40;;
12654;SDS011;6392;44.644;11.448;2022-09-27T09:23:41;3.03;;;1.37;;
12654;SDS011;6392;44.644;11.448;2022-09-27T09:26:38;5.10;;;1.73;;
12654;SDS011;6392;44.644;11.448;2022-09-27T09:29:24;4.73;;;1.63;;
12654;SDS011;6392;44.644;11.448;2022-09-27T09:32:09;4.00;;;1.93;;
12654;SDS011;6392;44.644;11.448;2022-09-27T09:34:46;2.17;;;1.57;;
12654;SDS011;6392;44.644;11.448;2022-09-27T09:37:19;3.53;;;1.37;;
12654;SDS011;6392;44.644;11.448;2022-09-27T09:39:49;3.47;;;1.17;;
12654;SDS011;6392;44.644;11.448;2022-09-27T09:42:22;3.27;;;1.40;;
12654;SDS011;6392;44.644;11.448;2022-09-27T09:44:54;2.33;;;1.40;;
12654;SDS011;6392;44.644;11.448;2022-09-27T09:47:30;2.37;;;1.50;;
12654;SDS011;6392;44.644;11.448;2022-09-27T09:50:02;3.20;;;1.10;;
12654;SDS011;6392;44.644;11.448;2022-09-27T09:52:34;2.00;;;1.23;;
12654;SDS011;6392;44.644;11.448;2022-09-27T09:55:06;3.07;;;1.40;;
12654;SDS011;6392;44.644;11.448;2022-09-27T09:57:45;4.80;;;1.57;;
12654;SDS011;6392;44.644;11.448;2022-09-27T10:00:21;3.53;;;1.27;;
12654;SDS011;6392;44.644;11.448;2022-09-27T10:02:50;5.40;;;1.53;;
12654;SDS011;6392;44.644;11.448;2022-09-27T10:05:23;3.63;;;1.40;;
12654;SDS011;6392;44.644;11.448;2022-09-27T10:07:52;2.33;;;1.20;;
12654;SDS011;6392;44.644;11.448;2022-09-27T10:10:23;4.83;;;1.07;;
12654;SDS011;6392;44.644;11.448;2022-09-27T10:12:50;3.13;;;1.47;;
12654;SDS011;6392;44.644;11.448;2022-09-27T10:15:18;2.43;;;1.10;;
12654;SDS011;6392;44.644;11.448;2022-09-27T10:17:47;2.17;;;1.00;;
12654;SDS011;6392;44.644;11.448;2022-09-27T10:20:21;3.10;;;1.10;;
12654;SDS011;6392;44.644;11.448;2022-09-27T10:22:52;3.13;;;1.20;;
12654;SDS011;6392;44.644;11.448;2022-09-27T10:25:23;4.90;;;1.20;;
12654;SDS011;6392;44.644;11.448;2022-09-27T10:27:52;2.33;;;1.20;;
12654;SDS011;6392;44.644;11.448;2022-09-27T10:30:26;4.20;;;2.07;;
12654;SDS011;6392;44.644;11.448;2022-09-27T10:32:57;4.77;;;1.10;;
12654;SDS011;6392;44.644;11.448;2022-09-27T10:35:32;1.70;;;1.20;;
12654;SDS011;6392;44.644;11.448;2022-09-27T10:38:15;1.77;;;1.10;;
12654;SDS011;6392;44.644;11.448;2022-09-27T10:40:48;2.60;;;1.17;;
12654;SDS011;6392;44.644;11.448;2022-09-27T10:43:23;2.27;;;1.20;;
12654;SDS011;6392;44.644;11.448;2022-09-27T10:45:59;1.27;;;1.10;;
12654;SDS011;6392;44.644;11.448;2022-09-27T10:48:33;2.90;;;1.30;;
12654;SDS011;6392;44.644;11.448;2022-09-27T10:51:00;3.80;;;0.90;;
12654;SDS011;6392;44.644;11.448;2022-09-27T10:53:29;2.63;;;1.47;;
12654;SDS011;6392;44.644;11.448;2022-09-27T10:55:59;4.50;;;1.40;;
12654;SDS011;6392;44.644;11.448;2022-09-27T10:58:27;2.03;;;1.43;;
12654;SDS011;6392;44.644;11.448;2022-09-27T11:00:57;3.30;;;1.50;;
12654;SDS011;6392;44.644;11.448;2022-09-27T11:03:28;4.93;;;0.97;;
12654;SDS011;6392;44.644;11.448;2022-09-27T11:05:57;1.20;;;1.10;;
12654;SDS011;6392;44.644;11.448;2022-09-27T11:08:29;2.70;;;1.03;;
12654;SDS011;6392;44.644;11.448;2022-09-27T11:11:01;4.23;;;1.23;;
12654;SDS011;6392;44.644;11.448;2022-09-27T11:13:31;3.63;;;1.53;;
12654;SDS011;6392;44.644;11.448;2022-09-27T11:18:56;1.23;;;1.00;;
12654;SDS011;6392;44.644;11.448;2022-09-27T11:21:34;4.47;;;1.00;;
12654;SDS011;6392;44.644;11.448;2022-09-27T11:24:14;3.00;;;0.90;;
12654;SDS011;6392;44.644;11.448;2022-09-27T11:27:01;2.40;;;0.70;;
12654;SDS011;6392;44.644;11.448;2022-09-27T11:29:44;3.40;;;1.13;;
12654;SDS011;6392;44.644;11.448;2022-09-27T11:32:26;1.70;;;1.07;;
12654;SDS011;6392;44.644;11.448;2022-09-27T11:35:11;2.80;;;1.13;;
12654;SDS011;6392;44.644;11.448;2022-09-27T11:37:57;4.80;;;1.80;;
12654;SDS011;6392;44.644;11.448;2022-09-27T11:40:34;5.50;;;1.83;;
12654;SDS011;6392;44.644;11.448;2022-09-27T11:43:17;2.70;;;1.40;;
12654;SDS011;6392;44.644;11.448;2022-09-27T11:45:57;4.57;;;1.10;;
12654;SDS011;6392;44.644;11.448;2022-09-27T11:48:36;3.10;;;1.67;;
12654;SDS011;6392;44.644;11.448;2022-09-27T11:51:20;4.37;;;1.47;;
12654;SDS011;6392;44.644;11.448;2022-09-27T11:53:57;1.77;;;0.87;;
12654;SDS011;6392;44.644;11.448;2022-09-27T11:56:39;2.80;;;1.00;;
12654;SDS011;6392;44.644;11.448;2022-09-27T11:59:18;2.50;;;1.10;;
12654;SDS011;6392;44.644;11.448;2022-09-27T12:02:12;1.87;;;1.13;;
12654;SDS011;6392;44.644;11.448;2022-09-27T12:05:00;2.13;;;1.20;;
12654;SDS011;6392;44.644;11.448;2022-09-27T12:07:47;2.60;;;0.80;;
12654;SDS011;6392;44.644;11.448;2022-09-27T12:10:21;1.57;;;1.03;;
12654;SDS011;6392;44.644;11.448;2022-09-27T12:12:49;2.87;;;1.20;;
12654;SDS011;6392;44.644;11.448;2022-09-27T12:15:19;4.07;;;1.40;;
12654;SDS011;6392;44.644;11.448;2022-09-27T12:17:48;2.93;;;1.67;;
12654;SDS011;6392;44.644;11.448;2022-09-27T12:20:20;3.73;;;1.57;;
12654;SDS011;6392;44.644;11.448;2022-09-27T12:22:52;5.33;;;2.20;;
12654;SDS011;6392;44.644;11.448;2022-09-27T12:25:22;3.53;;;1.20;;
12654;SDS011;6392;44.644;11.448;2022-09-27T12:27:53;1.97;;;1.20;;
12654;SDS011;6392;44.644;11.448;2022-09-27T12:30:26;1.83;;;1.03;;
12654;SDS011;6392;44.644;11.448;2022-09-27T12:32:56;2.90;;;1.20;;
12654;SDS011;6392;44.644;11.448;2022-09-27T12:35:33;1.37;;;1.00;;
12654;SDS011;6392;44.644;11.448;2022-09-27T12:38:08;1.43;;;0.90;;
12654;SDS011;6392;44.644;11.448;2022-09-27T12:40:40;2.23;;;1.10;;
12654;SDS011;6392;44.644;11.448;2022-09-27T12:43:13;2.73;;;1.30;;
12654;SDS011;6392;44.644;11.448;2022-09-27T12:45:45;1.97;;;1.20;;
12654;SDS011;6392;44.644;11.448;2022-09-27T12:48:20;1.63;;;0.90;;
12654;SDS011;6392;44.644;11.448;2022-09-27T12:50:54;2.17;;;1.00;;
12654;SDS011;6392;44.644;11.448;2022-09-27T12:53:28;1.97;;;1.33;;
12654;SDS011;6392;44.644;11.448;2022-09-27T12:56:12;2.00;;;1.20;;
12654;SDS011;6392;44.644;11.448;2022-09-27T12:59:01;2.43;;;1.20;;
12654;SDS011;6392;44.644;11.448;2022-09-27T13:01:57;3.23;;;1.20;;
12654;SDS011;6392;44.644;11.448;2022-09-27T13:04:59;4.17;;;1.30;;
12654;SDS011;6392;44.644;11.448;2022-09-27T13:07:58;3.73;;;1.30;;
12654;SDS011;6392;44.644;11.448;2022-09-27T13:10:42;1.70;;;1.00;;
12654;SDS011;6392;44.644;11.448;2022-09-27T13:13:20;4.67;;;1.30;;
12654;SDS011;6392;44.644;11.448;2022-09-27T13:15:51;5.80;;;1.00;;
12654;SDS011;6392;44.644;11.448;2022-09-27T13:24:28;2.40;;;1.13;;
12654;SDS011;6392;44.644;11.448;2022-09-27T13:26:57;3.47;;;2.03;;
12654;SDS011;6392;44.644;11.448;2022-09-27T13:32:10;1.97;;;1.20;;
12654;SDS011;6392;44.644;11.448;2022-09-27T13:34:41;2.00;;;1.33;;
12654;SDS011;6392;44.644;11.448;2022-09-27T13:40:10;1.23;;;0.70;;
12654;SDS011;6392;44.644;11.448;2022-09-27T13:42:54;2.37;;;0.80;;
12654;SDS011;6392;44.644;11.448;2022-09-27T13:45:50;2.27;;;0.93;;
12654;SDS011;6392;44.644;11.448;2022-09-27T13:48:21;0.83;;;0.80;;
12654;SDS011;6392;44.644;11.448;2022-09-27T13:50:56;2.30;;;0.80;;
12654;SDS011;6392;44.644;11.448;2022-09-27T13:53:28;4.77;;;1.10;;
12654;SDS011;6392;44.644;11.448;2022-09-27T13:55:59;2.40;;;1.13;;
12654;SDS011;6392;44.644;11.448;2022-09-27T14:01:17;3.87;;;1.00;;
12654;SDS011;6392;44.644;11.448;2022-09-27T14:03:50;2.73;;;0.70;;
12654;SDS011;6392;44.644;11.448;2022-09-27T14:06:19;1.53;;;1.00;;
12654;SDS011;6392;44.644;11.448;2022-09-27T14:08:50;2.13;;;0.90;;
12654;SDS011;6392;44.644;11.448;2022-09-27T14:11:22;1.13;;;0.70;;
12654;SDS011;6392;44.644;11.448;2022-09-27T14:13:52;2.00;;;0.80;;
12654;SDS011;6392;44.644;11.448;2022-09-27T14:16:23;2.43;;;0.60;;
12654;SDS011;6392;44.644;11.448;2022-09-27T14:18:54;1.10;;;0.60;;
12654;SDS011;6392;44.644;11.448;2022-09-27T14:21:28;0.50;;;0.50;;
12654;SDS011;6392;44.644;11.448;2022-09-27T14:26:45;0.90;;;0.60;;
12654;SDS011;6392;44.644;11.448;2022-09-27T14:29:16;2.30;;;0.67;;
12654;SDS011;6392;44.644;11.448;2022-09-27T14:31:46;1.70;;;0.63;;
12654;SDS011;6392;44.644;11.448;2022-09-27T14:34:28;0.67;;;0.53;;
12654;SDS011;6392;44.644;11.448;2022-09-27T14:36:55;2.57;;;0.60;;
12654;SDS011;6392;44.644;11.448;2022-09-27T14:39:41;1.27;;;1.07;;
12654;SDS011;6392;44.644;11.448;2022-09-27T14:42:16;0.73;;;0.63;;
12654;SDS011;6392;44.644;11.448;2022-09-27T14:44:45;2.23;;;0.70;;
12654;SDS011;6392;44.644;11.448;2022-09-27T14:47:17;1.67;;;0.70;;
12654;SDS011;6392;44.644;11.448;2022-09-27T14:49:46;1.80;;;0.70;;
12654;SDS011;6392;44.644;11.448;2022-09-27T14:52:15;1.87;;;0.60;;
12654;SDS011;6392;44.644;11.448;2022-09-27T14:54:53;2.60;;;0.80;;
12654;SDS011;6392;44.644;11.448;2022-09-27T14:57:22;0.87;;;0.80;;
12654;SDS011;6392;44.644;11.448;2022-09-27T14:59:50;0.93;;;0.50;;
12654;SDS011;6392;44.644;11.448;2022-09-27T15:02:19;1.33;;;0.40;;
12654;SDS011;6392;44.644;11.448;2022-09-27T15:04:50;2.67;;;0.90;;
12654;SDS011;6392;44.644;11.448;2022-09-27T15:07:17;2.30;;;0.70;;
12654;SDS011;6392;44.644;11.448;2022-09-27T15:09:46;2.27;;;0.70;;
12654;SDS011;6392;44.644;11.448;2022-09-27T15:12:17;1.40;;;0.70;;
12654;SDS011;6392;44.644;11.448;2022-09-27T15:14:50;1.77;;;0.63;;
12654;SDS011;6392;44.644;11.448;2022-09-27T15:17:20;1.80;;;0.70;;
12654;SDS011;6392;44.644;11.448;2022-09-27T15:19:56;1.50;;;0.60;;
12654;SDS011;6392;44.644;11.448;2022-09-27T15:22:33;2.17;;;0.90;;
12654;SDS011;6392;44.644;11.448;2022-09-27T15:25:06;2.30;;;0.80;;
12654;SDS011;6392;44.644;11.448;2022-09-27T15:27:45;2.57;;;0.80;;
12654;SDS011;6392;44.644;11.448;2022-09-27T15:30:18;2.63;;;1.10;;
12654;SDS011;6392;44.644;11.448;2022-09-27T15:32:51;1.53;;;0.80;;
12654;SDS011;6392;44.644;11.448;2022-09-27T15:35:26;0.97;;;0.50;;
12654;SDS011;6392;44.644;11.448;2022-09-27T15:38:08;4.17;;;0.70;;